sensor_id;sensor_type;location;lat;lon;timestamp;temperature;humidity
70830;SHT30;58451;51.550;7.208;2022-12-18T00:00:59;-8.03;82.50
70830;SHT30;58451;51.550;7.208;2022-12-18T00:02:37;-8.04;82.50
70830;SHT30;58451;51.550;7.208;2022-12-18T00:04:14;-8.06;82.50
70830;SHT30;58451;51.550;7.208;2022-12-18T00:05:57;-8.06;82.53
70830;SHT30;58451;51.550;7.208;2022-12-18T00:07:28;-8.08;82.55
70830;SHT30;58451;51.550;7.208;2022-12-18T00:09:01;-8.10;82.58
70830;SHT30;58451;51.550;7.208;2022-12-18T00:10:35;-8.11;82.53
70830;SHT30;58451;51.550;7.208;2022-12-18T00:12:07;-8.13;82.57
70830;SHT30;58451;51.550;7.208;2022-12-18T00:13:46;-8.14;82.52
70830;SHT30;58451;51.550;7.208;2022-12-18T00:15:20;-8.17;82.53
70830;SHT30;58451;51.550;7.208;2022-12-18T00:16:54;-8.18;82.52
70830;SHT30;58451;51.550;7.208;2022-12-18T00:18:31;-8.20;82.53
70830;SHT30;58451;51.550;7.208;2022-12-18T00:20:10;-8.23;82.50
70830;SHT30;58451;51.550;7.208;2022-12-18T00:21:44;-8.26;82.50
70830;SHT30;58451;51.550;7.208;2022-12-18T00:23:16;-8.27;82.52
70830;SHT30;58451;51.550;7.208;2022-12-18T00:24:48;-8.29;82.50
70830;SHT30;58451;51.550;7.208;2022-12-18T00:26:28;-8.30;82.50
70830;SHT30;58451;51.550;7.208;2022-12-18T00:28:04;-8.33;82.50
70830;SHT30;58451;51.550;7.208;2022-12-18T00:29:39;-8.35;82.50
70830;SHT30;58451;51.550;7.208;2022-12-18T00:31:12;-8.36;82.50
70830;SHT30;58451;51.550;7.208;2022-12-18T00:32:49;-8.40;82.50
70830;SHT30;58451;51.550;7.208;2022-12-18T00:34:21;-8.41;82.50
70830;SHT30;58451;51.550;7.208;2022-12-18T00:36:03;-8.44;82.50
70830;SHT30;58451;51.550;7.208;2022-12-18T00:37:42;-8.46;82.50
70830;SHT30;58451;51.550;7.208;2022-12-18T00:39:15;-8.46;82.50
70830;SHT30;58451;51.550;7.208;2022-12-18T00:40:48;-8.47;82.50
70830;SHT30;58451;51.550;7.208;2022-12-18T00:42:20;-8.47;82.58
70830;SHT30;58451;51.550;7.208;2022-12-18T00:44:13;-8.49;82.53
70830;SHT30;58451;51.550;7.208;2022-12-18T00:45:48;-8.50;82.50
70830;SHT30;58451;51.550;7.208;2022-12-18T00:47:24;-8.49;82.52
70830;SHT30;58451;51.550;7.208;2022-12-18T00:48:55;-8.49;82.50
70830;SHT30;58451;51.550;7.208;2022-12-18T00:50:28;-8.49;82.53
70830;SHT30;58451;51.550;7.208;2022-12-18T00:52:00;-8.51;82.50
70830;SHT30;58451;51.550;7.208;2022-12-18T00:53:32;-8.52;82.50
70830;SHT30;58451;51.550;7.208;2022-12-18T00:55:04;-8.52;82.50
70830;SHT30;58451;51.550;7.208;2022-12-18T00:56:38;-8.52;82.58
70830;SHT30;58451;51.550;7.208;2022-12-18T00:58:20;-8.52;82.60
70830;SHT30;58451;51.550;7.208;2022-12-18T00:59:52;-8.52;82.60
70830;SHT30;58451;51.550;7.208;2022-12-18T01:01:23;-8.52;82.63
70830;SHT30;58451;51.550;7.208;2022-12-18T01:02:56;-8.51;82.70
70830;SHT30;58451;51.550;7.208;2022-12-18T01:04:31;-8.51;82.80
70830;SHT30;58451;51.550;7.208;2022-12-18T01:06:08;-8.50;82.82
70830;SHT30;58451;51.550;7.208;2022-12-18T01:07:44;-8.49;82.80
70830;SHT30;58451;51.550;7.208;2022-12-18T01:09:16;-8.49;82.77
70830;SHT30;58451;51.550;7.208;2022-12-18T01:10:48;-8.50;82.72
70830;SHT30;58451;51.550;7.208;2022-12-18T01:12:20;-8.49;82.72
70830;SHT30;58451;51.550;7.208;2022-12-18T01:13:54;-8.49;82.98
70830;SHT30;58451;51.550;7.208;2022-12-18T01:15:27;-8.49;82.95
70830;SHT30;58451;51.550;7.208;2022-12-18T01:16:58;-8.48;82.90
70830;SHT30;58451;51.550;7.208;2022-12-18T01:18:30;-8.48;82.85
70830;SHT30;58451;51.550;7.208;2022-12-18T01:20:03;-8.49;82.82
70830;SHT30;58451;51.550;7.208;2022-12-18T01:21:37;-8.48;82.80
70830;SHT30;58451;51.550;7.208;2022-12-18T01:23:09;-8.50;82.80
70830;SHT30;58451;51.550;7.208;2022-12-18T01:24:41;-8.49;82.72
70830;SHT30;58451;51.550;7.208;2022-12-18T01:26:14;-8.50;82.70
70830;SHT30;58451;51.550;7.208;2022-12-18T01:27:50;-8.51;82.70
70830;SHT30;58451;51.550;7.208;2022-12-18T01:29:29;-8.51;82.70
70830;SHT30;58451;51.550;7.208;2022-12-18T01:31:36;-8.53;82.70
70830;SHT30;58451;51.550;7.208;2022-12-18T01:33:06;-8.53;82.70
70830;SHT30;58451;51.550;7.208;2022-12-18T01:34:39;-8.54;82.70
70830;SHT30;58451;51.550;7.208;2022-12-18T01:36:15;-8.55;82.70
70830;SHT30;58451;51.550;7.208;2022-12-18T01:37:57;-8.54;82.65
70830;SHT30;58451;51.550;7.208;2022-12-18T01:39:32;-8.55;82.65
70830;SHT30;58451;51.550;7.208;2022-12-18T01:41:04;-8.54;82.67
70830;SHT30;58451;51.550;7.208;2022-12-18T01:42:36;-8.56;82.62
70830;SHT30;58451;51.550;7.208;2022-12-18T01:46:36;-8.59;82.60
70830;SHT30;58451;51.550;7.208;2022-12-18T01:48:08;-8.59;82.60
70830;SHT30;58451;51.550;7.208;2022-12-18T01:49:40;-8.60;82.60
70830;SHT30;58451;51.550;7.208;2022-12-18T01:51:14;-8.60;82.62
70830;SHT30;58451;51.550;7.208;2022-12-18T01:52:48;-8.60;82.60
70830;SHT30;58451;51.550;7.208;2022-12-18T01:54:27;-8.59;82.65
70830;SHT30;58451;51.550;7.208;2022-12-18T01:56:00;-8.59;82.68
70830;SHT30;58451;51.550;7.208;2022-12-18T01:57:32;-8.58;82.68
70830;SHT30;58451;51.550;7.208;2022-12-18T01:59:05;-8.57;82.72
70830;SHT30;58451;51.550;7.208;2022-12-18T02:00:41;-8.57;82.75
70830;SHT30;58451;51.550;7.208;2022-12-18T02:02:14;-8.57;82.75
70830;SHT30;58451;51.550;7.208;2022-12-18T02:03:48;-8.56;82.75
70830;SHT30;58451;51.550;7.208;2022-12-18T02:05:33;-8.57;82.77
70830;SHT30;58451;51.550;7.208;2022-12-18T02:09:25;-8.57;82.80
70830;SHT30;58451;51.550;7.208;2022-12-18T02:18:28;-8.64;82.72
70830;SHT30;58451;51.550;7.208;2022-12-18T02:20:16;-8.66;82.70
70830;SHT30;58451;51.550;7.208;2022-12-18T02:22:13;-8.68;82.70
70830;SHT30;58451;51.550;7.208;2022-12-18T02:27:42;-8.77;82.70
70830;SHT30;58451;51.550;7.208;2022-12-18T02:29:21;-8.78;82.70
70830;SHT30;58451;51.550;7.208;2022-12-18T02:31:02;-8.79;82.70
70830;SHT30;58451;51.550;7.208;2022-12-18T02:32:42;-8.82;82.70
70830;SHT30;58451;51.550;7.208;2022-12-18T02:34:21;-8.82;82.70
70830;SHT30;58451;51.550;7.208;2022-12-18T02:36:05;-8.84;82.70
70830;SHT30;58451;51.550;7.208;2022-12-18T02:37:41;-8.84;82.70
70830;SHT30;58451;51.550;7.208;2022-12-18T02:39:18;-8.86;82.70
70830;SHT30;58451;51.550;7.208;2022-12-18T02:41:01;-8.87;82.70
70830;SHT30;58451;51.550;7.208;2022-12-18T02:42:35;-8.89;82.70
70830;SHT30;58451;51.550;7.208;2022-12-18T02:44:10;-8.91;82.70
70830;SHT30;58451;51.550;7.208;2022-12-18T02:45:49;-8.90;82.73
70830;SHT30;58451;51.550;7.208;2022-12-18T02:47:35;-8.91;82.80
70830;SHT30;58451;51.550;7.208;2022-12-18T02:49:35;-8.91;82.80
70830;SHT30;58451;51.550;7.208;2022-12-18T02:55:13;-8.94;82.82
70830;SHT30;58451;51.550;7.208;2022-12-18T02:56:57;-8.94;82.82
70830;SHT30;58451;51.550;7.208;2022-12-18T02:58:55;-8.94;82.82
70830;SHT30;58451;51.550;7.208;2022-12-18T03:00:53;-8.94;82.83
70830;SHT30;58451;51.550;7.208;2022-12-18T03:03:19;-8.94;82.88
70830;SHT30;58451;51.550;7.208;2022-12-18T03:05:08;-8.94;82.88
70830;SHT30;58451;51.550;7.208;2022-12-18T03:06:46;-8.94;82.90
70830;SHT30;58451;51.550;7.208;2022-12-18T03:08:31;-8.96;82.90
70830;SHT30;58451;51.550;7.208;2022-12-18T03:10:14;-8.95;82.92
70830;SHT30;58451;51.550;7.208;2022-12-18T03:11:54;-8.96;83.00
70830;SHT30;58451;51.550;7.208;2022-12-18T03:13:53;-8.96;83.00
70830;SHT30;58451;51.550;7.208;2022-12-18T03:15:39;-8.98;83.00
70830;SHT30;58451;51.550;7.208;2022-12-18T03:17:19;-9.00;82.98
70830;SHT30;58451;51.550;7.208;2022-12-18T03:19:01;-8.99;82.93
70830;SHT30;58451;51.550;7.208;2022-12-18T03:20:38;-9.01;82.93
70830;SHT30;58451;51.550;7.208;2022-12-18T03:22:16;-9.01;82.93
70830;SHT30;58451;51.550;7.208;2022-12-18T03:23:53;-8.98;82.92
70830;SHT30;58451;51.550;7.208;2022-12-18T03:25:27;-8.95;83.00
70830;SHT30;58451;51.550;7.208;2022-12-18T03:27:02;-8.92;83.08
70830;SHT30;58451;51.550;7.208;2022-12-18T03:28:42;-8.89;83.27
70830;SHT30;58451;51.550;7.208;2022-12-18T03:30:22;-8.85;83.43
70830;SHT30;58451;51.550;7.208;2022-12-18T03:31:55;-8.81;83.58
70830;SHT30;58451;51.550;7.208;2022-12-18T03:33:55;-8.75;83.77
70830;SHT30;58451;51.550;7.208;2022-12-18T03:35:41;-8.69;83.97
70830;SHT30;58451;51.550;7.208;2022-12-18T03:37:16;-8.66;83.98
70830;SHT30;58451;51.550;7.208;2022-12-18T03:38:48;-8.62;83.88
70830;SHT30;58451;51.550;7.208;2022-12-18T03:40:23;-8.57;84.08
70830;SHT30;58451;51.550;7.208;2022-12-18T03:42:14;-8.50;84.18
70830;SHT30;58451;51.550;7.208;2022-12-18T03:49:56;-8.29;84.30
70830;SHT30;58451;51.550;7.208;2022-12-18T03:51:45;-8.24;84.30
70830;SHT30;58451;51.550;7.208;2022-12-18T03:53:43;-8.20;84.32
70830;SHT30;58451;51.550;7.208;2022-12-18T03:55:23;-8.13;84.30
70830;SHT30;58451;51.550;7.208;2022-12-18T03:57:18;-8.10;84.20
70830;SHT30;58451;51.550;7.208;2022-12-18T03:58:56;-8.06;84.18
70830;SHT30;58451;51.550;7.208;2022-12-18T04:00:32;-8.03;84.12
70830;SHT30;58451;51.550;7.208;2022-12-18T04:02:09;-8.01;84.03
70830;SHT30;58451;51.550;7.208;2022-12-18T04:03:44;-7.99;84.00
70830;SHT30;58451;51.550;7.208;2022-12-18T04:05:22;-7.96;83.93
70830;SHT30;58451;51.550;7.208;2022-12-18T04:06:57;-7.94;83.88
70830;SHT30;58451;51.550;7.208;2022-12-18T04:08:31;-7.91;83.80
70830;SHT30;58451;51.550;7.208;2022-12-18T04:10:09;-7.91;83.68
70830;SHT30;58451;51.550;7.208;2022-12-18T04:11:43;-7.88;83.67
70830;SHT30;58451;51.550;7.208;2022-12-18T04:13:28;-7.83;83.60
70830;SHT30;58451;51.550;7.208;2022-12-18T04:15:07;-7.78;83.50
70830;SHT30;58451;51.550;7.208;2022-12-18T04:16:40;-7.75;83.38
70830;SHT30;58451;51.550;7.208;2022-12-18T04:18:14;-7.75;83.18
70830;SHT30;58451;51.550;7.208;2022-12-18T04:19:46;-7.74;82.98
70830;SHT30;58451;51.550;7.208;2022-12-18T04:21:18;-7.74;82.75
70830;SHT30;58451;51.550;7.208;2022-12-18T04:22:52;-7.75;82.48
70830;SHT30;58451;51.550;7.208;2022-12-18T04:24:24;-7.78;82.32
70830;SHT30;58451;51.550;7.208;2022-12-18T04:26:07;-7.79;82.22
70830;SHT30;58451;51.550;7.208;2022-12-18T04:27:47;-7.83;82.03
70830;SHT30;58451;51.550;7.208;2022-12-18T04:29:19;-7.88;81.90
70830;SHT30;58451;51.550;7.208;2022-12-18T04:30:53;-7.93;81.78
70830;SHT30;58451;51.550;7.208;2022-12-18T04:32:35;-8.01;81.70
70830;SHT30;58451;51.550;7.208;2022-12-18T04:34:09;-8.04;81.65
70830;SHT30;58451;51.550;7.208;2022-12-18T04:35:45;-8.10;81.67
70830;SHT30;58451;51.550;7.208;2022-12-18T04:37:17;-8.14;81.70
70830;SHT30;58451;51.550;7.208;2022-12-18T04:38:50;-8.17;81.60
70830;SHT30;58451;51.550;7.208;2022-12-18T04:40:24;-8.21;81.60
70830;SHT30;58451;51.550;7.208;2022-12-18T04:41:56;-8.26;81.52
70830;SHT30;58451;51.550;7.208;2022-12-18T04:43:31;-8.30;81.50
70830;SHT30;58451;51.550;7.208;2022-12-18T04:45:04;-8.32;81.58
70830;SHT30;58451;51.550;7.208;2022-12-18T04:46:37;-8.31;81.65
70830;SHT30;58451;51.550;7.208;2022-12-18T04:48:08;-8.30;81.77
70830;SHT30;58451;51.550;7.208;2022-12-18T04:49:41;-8.30;81.82
70830;SHT30;58451;51.550;7.208;2022-12-18T04:51:13;-8.28;81.90
70830;SHT30;58451;51.550;7.208;2022-12-18T04:52:45;-8.27;81.97
70830;SHT30;58451;51.550;7.208;2022-12-18T04:54:17;-8.23;82.00
70830;SHT30;58451;51.550;7.208;2022-12-18T04:55:49;-8.20;82.00
70830;SHT30;58451;51.550;7.208;2022-12-18T04:57:21;-8.17;82.03
70830;SHT30;58451;51.550;7.208;2022-12-18T04:58:53;-8.12;82.00
70830;SHT30;58451;51.550;7.208;2022-12-18T05:00:25;-8.09;81.97
70830;SHT30;58451;51.550;7.208;2022-12-18T05:01:57;-8.06;81.90
70830;SHT30;58451;51.550;7.208;2022-12-18T05:03:29;-8.03;81.88
70830;SHT30;58451;51.550;7.208;2022-12-18T05:05:02;-8.01;81.85
70830;SHT30;58451;51.550;7.208;2022-12-18T05:06:36;-7.97;81.80
70830;SHT30;58451;51.550;7.208;2022-12-18T05:08:08;-7.94;81.80
70830;SHT30;58451;51.550;7.208;2022-12-18T05:09:41;-7.90;81.70
70830;SHT30;58451;51.550;7.208;2022-12-18T05:11:13;-7.90;81.67
70830;SHT30;58451;51.550;7.208;2022-12-18T05:12:49;-7.89;81.43
70830;SHT30;58451;51.550;7.208;2022-12-18T05:14:31;-7.89;81.30
70830;SHT30;58451;51.550;7.208;2022-12-18T05:16:04;-7.89;81.23
70830;SHT30;58451;51.550;7.208;2022-12-18T05:17:37;-7.89;81.20
70830;SHT30;58451;51.550;7.208;2022-12-18T05:19:09;-7.91;81.10
70830;SHT30;58451;51.550;7.208;2022-12-18T05:20:41;-7.93;80.98
70830;SHT30;58451;51.550;7.208;2022-12-18T05:22:13;-7.99;80.85
70830;SHT30;58451;51.550;7.208;2022-12-18T05:23:45;-8.04;80.75
70830;SHT30;58451;51.550;7.208;2022-12-18T05:25:17;-8.10;80.72
70830;SHT30;58451;51.550;7.208;2022-12-18T05:26:51;-8.16;80.70
70830;SHT30;58451;51.550;7.208;2022-12-18T05:28:23;-8.22;80.68
70830;SHT30;58451;51.550;7.208;2022-12-18T05:29:57;-8.23;80.68
70830;SHT30;58451;51.550;7.208;2022-12-18T05:31:29;-8.25;80.73
70830;SHT30;58451;51.550;7.208;2022-12-18T05:33:07;-8.27;80.80
70830;SHT30;58451;51.550;7.208;2022-12-18T05:34:40;-8.27;80.88
70830;SHT30;58451;51.550;7.208;2022-12-18T05:36:17;-8.27;80.97
70830;SHT30;58451;51.550;7.208;2022-12-18T05:37:49;-8.28;81.00
70830;SHT30;58451;51.550;7.208;2022-12-18T05:39:24;-8.27;81.10
70830;SHT30;58451;51.550;7.208;2022-12-18T05:40:57;-8.24;81.12
70830;SHT30;58451;51.550;7.208;2022-12-18T05:42:31;-8.22;81.10
70830;SHT30;58451;51.550;7.208;2022-12-18T05:44:03;-8.22;81.08
70830;SHT30;58451;51.550;7.208;2022-12-18T05:45:37;-8.20;81.07
70830;SHT30;58451;51.550;7.208;2022-12-18T05:47:10;-8.18;81.07
70830;SHT30;58451;51.550;7.208;2022-12-18T05:48:42;-8.14;81.00
70830;SHT30;58451;51.550;7.208;2022-12-18T05:50:15;-8.12;80.98
70830;SHT30;58451;51.550;7.208;2022-12-18T05:51:47;-8.10;80.92
70830;SHT30;58451;51.550;7.208;2022-12-18T05:53:19;-8.11;80.88
70830;SHT30;58451;51.550;7.208;2022-12-18T05:54:52;-8.13;80.82
70830;SHT30;58451;51.550;7.208;2022-12-18T05:56:24;-8.15;80.80
70830;SHT30;58451;51.550;7.208;2022-12-18T05:57:56;-8.18;80.77
70830;SHT30;58451;51.550;7.208;2022-12-18T05:59:30;-8.19;80.73
70830;SHT30;58451;51.550;7.208;2022-12-18T06:01:13;-8.19;80.77
70830;SHT30;58451;51.550;7.208;2022-12-18T06:02:51;-8.20;80.70
70830;SHT30;58451;51.550;7.208;2022-12-18T06:04:24;-8.19;80.68
70830;SHT30;58451;51.550;7.208;2022-12-18T06:06:01;-8.22;80.60
70830;SHT30;58451;51.550;7.208;2022-12-18T06:07:33;-8.24;80.53
70830;SHT30;58451;51.550;7.208;2022-12-18T06:09:05;-8.27;80.50
70830;SHT30;58451;51.550;7.208;2022-12-18T06:10:39;-8.31;80.50
70830;SHT30;58451;51.550;7.208;2022-12-18T06:12:13;-8.34;80.40
70830;SHT30;58451;51.550;7.208;2022-12-18T06:13:45;-8.35;80.33
70830;SHT30;58451;51.550;7.208;2022-12-18T06:15:27;-8.37;80.30
70830;SHT30;58451;51.550;7.208;2022-12-18T06:16:59;-8.36;80.30
70830;SHT30;58451;51.550;7.208;2022-12-18T06:18:31;-8.36;80.30
70830;SHT30;58451;51.550;7.208;2022-12-18T06:20:04;-8.35;80.37
70830;SHT30;58451;51.550;7.208;2022-12-18T06:21:37;-8.36;80.32
70830;SHT30;58451;51.550;7.208;2022-12-18T06:23:09;-8.39;80.35
70830;SHT30;58451;51.550;7.208;2022-12-18T06:24:41;-8.38;80.47
70830;SHT30;58451;51.550;7.208;2022-12-18T06:26:13;-8.36;80.50
70830;SHT30;58451;51.550;7.208;2022-12-18T06:27:46;-8.35;80.50
70830;SHT30;58451;51.550;7.208;2022-12-18T06:29:19;-8.31;80.53
70830;SHT30;58451;51.550;7.208;2022-12-18T06:30:51;-8.28;80.50
70830;SHT30;58451;51.550;7.208;2022-12-18T06:32:25;-8.23;80.47
70830;SHT30;58451;51.550;7.208;2022-12-18T06:33:59;-8.20;80.38
70830;SHT30;58451;51.550;7.208;2022-12-18T06:35:36;-8.19;80.27
70830;SHT30;58451;51.550;7.208;2022-12-18T06:37:10;-8.19;80.20
70830;SHT30;58451;51.550;7.208;2022-12-18T06:38:43;-8.16;80.17
70830;SHT30;58451;51.550;7.208;2022-12-18T06:40:15;-8.13;80.13
70830;SHT30;58451;51.550;7.208;2022-12-18T06:41:48;-8.11;80.12
70830;SHT30;58451;51.550;7.208;2022-12-18T06:43:20;-8.10;80.00
70830;SHT30;58451;51.550;7.208;2022-12-18T06:44:54;-8.09;79.90
70830;SHT30;58451;51.550;7.208;2022-12-18T06:46:26;-8.07;79.87
70830;SHT30;58451;51.550;7.208;2022-12-18T06:47:59;-8.05;79.70
70830;SHT30;58451;51.550;7.208;2022-12-18T06:49:31;-8.05;79.60
70830;SHT30;58451;51.550;7.208;2022-12-18T06:51:03;-8.02;79.50
70830;SHT30;58451;51.550;7.208;2022-12-18T06:52:37;-8.03;79.30
70830;SHT30;58451;51.550;7.208;2022-12-18T06:54:10;-8.06;79.30
70830;SHT30;58451;51.550;7.208;2022-12-18T06:55:42;-8.10;79.30
70830;SHT30;58451;51.550;7.208;2022-12-18T06:57:15;-8.14;79.32
70830;SHT30;58451;51.550;7.208;2022-12-18T06:58:48;-8.18;79.40
70830;SHT30;58451;51.550;7.208;2022-12-18T07:00:21;-8.21;79.47
70830;SHT30;58451;51.550;7.208;2022-12-18T07:01:53;-8.22;79.53
70830;SHT30;58451;51.550;7.208;2022-12-18T07:03:25;-8.20;79.60
70830;SHT30;58451;51.550;7.208;2022-12-18T07:04:57;-8.17;79.63
70830;SHT30;58451;51.550;7.208;2022-12-18T07:06:31;-8.14;79.55
70830;SHT30;58451;51.550;7.208;2022-12-18T07:08:06;-8.14;79.50
70830;SHT30;58451;51.550;7.208;2022-12-18T07:09:40;-8.13;79.47
70830;SHT30;58451;51.550;7.208;2022-12-18T07:11:12;-8.13;79.40
70830;SHT30;58451;51.550;7.208;2022-12-18T07:12:45;-8.13;79.40
70830;SHT30;58451;51.550;7.208;2022-12-18T07:14:17;-8.15;79.40
70830;SHT30;58451;51.550;7.208;2022-12-18T07:15:49;-8.16;79.43
70830;SHT30;58451;51.550;7.208;2022-12-18T07:17:21;-8.14;79.45
70830;SHT30;58451;51.550;7.208;2022-12-18T07:18:54;-8.14;79.47
70830;SHT30;58451;51.550;7.208;2022-12-18T07:20:27;-8.11;79.50
70830;SHT30;58451;51.550;7.208;2022-12-18T07:21:59;-8.11;79.45
70830;SHT30;58451;51.550;7.208;2022-12-18T07:23:35;-8.11;79.47
70830;SHT30;58451;51.550;7.208;2022-12-18T07:25:08;-8.12;79.50
70830;SHT30;58451;51.550;7.208;2022-12-18T07:26:40;-8.11;79.48
70830;SHT30;58451;51.550;7.208;2022-12-18T07:28:12;-8.12;79.52
70830;SHT30;58451;51.550;7.208;2022-12-18T07:29:48;-8.08;79.58
70830;SHT30;58451;51.550;7.208;2022-12-18T07:31:23;-8.03;79.52
70830;SHT30;58451;51.550;7.208;2022-12-18T07:32:56;-8.05;79.50
70830;SHT30;58451;51.550;7.208;2022-12-18T07:34:28;-8.02;79.50
70830;SHT30;58451;51.550;7.208;2022-12-18T07:36:00;-8.01;79.43
70830;SHT30;58451;51.550;7.208;2022-12-18T07:37:34;-8.02;79.38
70830;SHT30;58451;51.550;7.208;2022-12-18T07:39:10;-8.06;79.43
70830;SHT30;58451;51.550;7.208;2022-12-18T07:40:44;-8.06;79.57
70830;SHT30;58451;51.550;7.208;2022-12-18T07:42:21;-8.02;79.62
70830;SHT30;58451;51.550;7.208;2022-12-18T07:44:08;-8.01;79.65
70830;SHT30;58451;51.550;7.208;2022-12-18T07:45:42;-7.97;79.65
70830;SHT30;58451;51.550;7.208;2022-12-18T07:47:16;-7.97;79.65
70830;SHT30;58451;51.550;7.208;2022-12-18T07:48:49;-7.96;79.67
70830;SHT30;58451;51.550;7.208;2022-12-18T07:50:21;-7.93;79.70
70830;SHT30;58451;51.550;7.208;2022-12-18T07:51:55;-7.91;79.72
70830;SHT30;58451;51.550;7.208;2022-12-18T07:53:33;-7.90;79.75
70830;SHT30;58451;51.550;7.208;2022-12-18T07:55:11;-7.87;79.80
70830;SHT30;58451;51.550;7.208;2022-12-18T07:56:47;-7.82;79.82
70830;SHT30;58451;51.550;7.208;2022-12-18T07:58:18;-7.77;79.87
70830;SHT30;58451;51.550;7.208;2022-12-18T07:59:50;-7.70;79.90
70830;SHT30;58451;51.550;7.208;2022-12-18T08:01:22;-7.63;79.90
70830;SHT30;58451;51.550;7.208;2022-12-18T08:02:54;-7.58;79.90
70830;SHT30;58451;51.550;7.208;2022-12-18T08:04:27;-7.54;79.90
70830;SHT30;58451;51.550;7.208;2022-12-18T08:05:59;-7.51;79.92
70830;SHT30;58451;51.550;7.208;2022-12-18T08:07:33;-7.47;80.00
70830;SHT30;58451;51.550;7.208;2022-12-18T08:09:04;-7.40;80.00
70830;SHT30;58451;51.550;7.208;2022-12-18T08:10:37;-7.37;80.00
70830;SHT30;58451;51.550;7.208;2022-12-18T08:12:10;-7.31;80.02
70830;SHT30;58451;51.550;7.208;2022-12-18T08:13:42;-7.27;80.00
70830;SHT30;58451;51.550;7.208;2022-12-18T08:15:14;-7.22;80.00
70830;SHT30;58451;51.550;7.208;2022-12-18T08:16:46;-7.17;80.00
70830;SHT30;58451;51.550;7.208;2022-12-18T08:18:18;-7.10;80.00
70830;SHT30;58451;51.550;7.208;2022-12-18T08:19:49;-7.05;80.00
70830;SHT30;58451;51.550;7.208;2022-12-18T08:21:23;-6.98;80.00
70830;SHT30;58451;51.550;7.208;2022-12-18T08:23:01;-6.92;79.98
70830;SHT30;58451;51.550;7.208;2022-12-18T08:24:32;-6.85;80.00
70830;SHT30;58451;51.550;7.208;2022-12-18T08:26:04;-6.79;79.90
70830;SHT30;58451;51.550;7.208;2022-12-18T08:27:36;-6.74;79.88
70830;SHT30;58451;51.550;7.208;2022-12-18T08:29:09;-6.67;79.80
70830;SHT30;58451;51.550;7.208;2022-12-18T08:30:42;-6.63;79.80
70830;SHT30;58451;51.550;7.208;2022-12-18T08:32:13;-6.57;79.80
70830;SHT30;58451;51.550;7.208;2022-12-18T08:33:47;-6.51;79.80
70830;SHT30;58451;51.550;7.208;2022-12-18T08:35:21;-6.45;79.77
70830;SHT30;58451;51.550;7.208;2022-12-18T08:36:52;-6.41;79.70
70830;SHT30;58451;51.550;7.208;2022-12-18T08:38:24;-6.39;79.70
70830;SHT30;58451;51.550;7.208;2022-12-18T08:39:56;-6.37;79.70
70830;SHT30;58451;51.550;7.208;2022-12-18T08:41:28;-6.38;79.72
70830;SHT30;58451;51.550;7.208;2022-12-18T08:43:00;-6.37;79.80
70830;SHT30;58451;51.550;7.208;2022-12-18T08:44:51;-6.34;79.80
70830;SHT30;58451;51.550;7.208;2022-12-18T08:46:23;-6.30;79.80
70830;SHT30;58451;51.550;7.208;2022-12-18T08:47:58;-6.26;79.83
70830;SHT30;58451;51.550;7.208;2022-12-18T08:49:30;-6.20;79.90
70830;SHT30;58451;51.550;7.208;2022-12-18T08:51:04;-6.11;80.02
70830;SHT30;58451;51.550;7.208;2022-12-18T08:52:37;-6.03;80.13
70830;SHT30;58451;51.550;7.208;2022-12-18T08:54:11;-5.95;80.30
70830;SHT30;58451;51.550;7.208;2022-12-18T08:55:45;-5.88;80.47
70830;SHT30;58451;51.550;7.208;2022-12-18T08:57:20;-5.79;80.67
70830;SHT30;58451;51.550;7.208;2022-12-18T08:58:53;-5.72;80.68
70830;SHT30;58451;51.550;7.208;2022-12-18T09:00:26;-5.61;80.77
70830;SHT30;58451;51.550;7.208;2022-12-18T09:01:58;-5.51;80.85
70830;SHT30;58451;51.550;7.208;2022-12-18T09:03:30;-5.44;80.87
70830;SHT30;58451;51.550;7.208;2022-12-18T09:05:02;-5.38;80.72
70830;SHT30;58451;51.550;7.208;2022-12-18T09:06:36;-5.31;80.60
70830;SHT30;58451;51.550;7.208;2022-12-18T09:08:09;-5.24;80.53
70830;SHT30;58451;51.550;7.208;2022-12-18T09:09:42;-5.19;80.48
70830;SHT30;58451;51.550;7.208;2022-12-18T09:11:15;-5.13;80.45
70830;SHT30;58451;51.550;7.208;2022-12-18T09:12:51;-5.07;80.43
70830;SHT30;58451;51.550;7.208;2022-12-18T09:14:23;-4.99;80.42
70830;SHT30;58451;51.550;7.208;2022-12-18T09:15:56;-4.90;80.38
70830;SHT30;58451;51.550;7.208;2022-12-18T09:17:28;-4.85;80.38
70830;SHT30;58451;51.550;7.208;2022-12-18T09:19:00;-4.80;80.40
70830;SHT30;58451;51.550;7.208;2022-12-18T09:20:36;-4.76;80.45
70830;SHT30;58451;51.550;7.208;2022-12-18T09:22:09;-4.75;80.48
70830;SHT30;58451;51.550;7.208;2022-12-18T09:23:41;-4.70;80.45
70830;SHT30;58451;51.550;7.208;2022-12-18T09:25:13;-4.66;80.42
70830;SHT30;58451;51.550;7.208;2022-12-18T09:26:47;-4.62;80.42
70830;SHT30;58451;51.550;7.208;2022-12-18T09:28:21;-4.55;80.37
70830;SHT30;58451;51.550;7.208;2022-12-18T09:29:53;-4.48;80.53
70830;SHT30;58451;51.550;7.208;2022-12-18T09:31:25;-4.41;80.68
70830;SHT30;58451;51.550;7.208;2022-12-18T09:32:56;-4.32;80.83
70830;SHT30;58451;51.550;7.208;2022-12-18T09:34:28;-4.25;80.85
70830;SHT30;58451;51.550;7.208;2022-12-18T09:36:01;-4.17;80.82
70830;SHT30;58451;51.550;7.208;2022-12-18T09:37:35;-4.07;80.78
70830;SHT30;58451;51.550;7.208;2022-12-18T09:39:07;-3.95;80.70
70830;SHT30;58451;51.550;7.208;2022-12-18T09:53:57;-3.29;80.88
70830;SHT30;58451;51.550;7.208;2022-12-18T09:55:42;-3.19;80.87
70830;SHT30;58451;51.550;7.208;2022-12-18T09:57:18;-3.09;80.90
70830;SHT30;58451;51.550;7.208;2022-12-18T09:58:58;-2.98;80.82
70830;SHT30;58451;51.550;7.208;2022-12-18T10:00:33;-2.90;80.73
70830;SHT30;58451;51.550;7.208;2022-12-18T10:02:21;-2.82;80.72
70830;SHT30;58451;51.550;7.208;2022-12-18T10:03:56;-2.73;80.72
70830;SHT30;58451;51.550;7.208;2022-12-18T10:05:37;-2.65;80.72
70830;SHT30;58451;51.550;7.208;2022-12-18T10:11:34;-2.30;81.05
70830;SHT30;58451;51.550;7.208;2022-12-18T10:13:57;-2.19;80.80
70830;SHT30;58451;51.550;7.208;2022-12-18T10:21:04;-1.88;80.42
70830;SHT30;58451;51.550;7.208;2022-12-18T10:25:28;-1.78;80.20
70830;SHT30;58451;51.550;7.208;2022-12-18T10:27:18;-1.74;79.98
70830;SHT30;58451;51.550;7.208;2022-12-18T10:28:57;-1.67;80.12
70830;SHT30;58451;51.550;7.208;2022-12-18T10:30:36;-1.60;80.33
70830;SHT30;58451;51.550;7.208;2022-12-18T10:34:12;-1.42;80.45
70830;SHT30;58451;51.550;7.208;2022-12-18T10:35:45;-1.37;80.18
70830;SHT30;58451;51.550;7.208;2022-12-18T10:37:23;-1.34;80.08
70830;SHT30;58451;51.550;7.208;2022-12-18T10:45:14;-1.12;79.57
70830;SHT30;58451;51.550;7.208;2022-12-18T10:46:54;-1.08;79.57
70830;SHT30;58451;51.550;7.208;2022-12-18T10:50:24;-0.95;79.82
70830;SHT30;58451;51.550;7.208;2022-12-18T10:52:27;-0.87;79.95
70830;SHT30;58451;51.550;7.208;2022-12-18T10:54:16;-0.81;79.75
70830;SHT30;58451;51.550;7.208;2022-12-18T10:55:55;-0.75;79.55
70830;SHT30;58451;51.550;7.208;2022-12-18T10:59:11;-0.61;79.50
70830;SHT30;58451;51.550;7.208;2022-12-18T11:00:53;-0.54;79.52
70830;SHT30;58451;51.550;7.208;2022-12-18T11:02:48;-0.45;79.40
70830;SHT30;58451;51.550;7.208;2022-12-18T11:04:25;-0.40;79.23
70830;SHT30;58451;51.550;7.208;2022-12-18T11:06:21;-0.36;78.98
70830;SHT30;58451;51.550;7.208;2022-12-18T11:07:56;-0.31;78.98
70830;SHT30;58451;51.550;7.208;2022-12-18T11:09:32;-0.26;79.05